Time;durP1;ratioP1;P1;durP2;ratioP2;P2;SDS_P1;SDS_P2;PMS_P1;PMS_P2;Temp;Humidity;BMP_temperature;BMP_pressure;BME280_temperature;BME280_humidity;BME280_pressure;Samples;Min_cycle;Max_cycle;Signal;HPM_P1;HPM_P2
2022/11/25 00:00:06;;;;;;;3.90;3.70;;;;;;;5.47;100.00;100913.22;6186755;23;20373;-74
2022/11/25 00:02:32;;;;;;;4.03;3.83;;;;;;;5.54;100.00;100903.47;6150434;23;20498;-73
2022/11/25 00:04:59;;;;;;;4.10;3.90;;;;;;;5.64;100.00;100906.66;6147815;23;20012;-73
2022/11/25 00:07:25;;;;;;;3.95;3.75;;;;;;;5.45;100.00;100883.75;6132173;23;20033;-73
2022/11/25 00:09:52;;;;;;;4.22;4.03;;;;;;;5.26;100.00;100833.13;6150147;23;20005;-75
2022/11/25 00:12:18;;;;;;;4.18;3.88;;;;;;;5.31;100.00;100829.50;6149423;23;20017;-74
2022/11/25 00:14:44;;;;;;;4.57;4.18;;;;;;;5.52;100.00;100861.84;6137665;23;20020;-72
2022/11/25 00:17:11;;;;;;;4.10;3.80;;;;;;;5.21;100.00;100796.81;6149955;23;20288;-72
2022/11/25 00:19:37;;;;;;;11.43;4.00;;;;;;;5.92;100.00;100893.69;6154587;23;20023;-74
2022/11/25 00:22:03;;;;;;;5.03;4.72;;;;;;;5.88;100.00;100890.31;6130919;23;20025;-74
2022/11/25 00:24:30;;;;;;;3.80;3.70;;;;;;;5.85;100.00;100893.00;6119762;23;20029;-72
2022/11/25 00:26:56;;;;;;;5.18;4.85;;;;;;;5.45;100.00;100828.22;6170056;23;20101;-72
2022/11/25 00:29:23;;;;;;;3.70;3.50;;;;;;;5.34;100.00;100794.72;6149829;23;20129;-72
2022/11/25 00:31:49;;;;;;;3.75;3.63;;;;;;;5.71;100.00;100875.22;6180689;23;20024;-72
2022/11/25 00:34:15;;;;;;;5.43;4.95;;;;;;;5.57;100.00;100822.66;6152631;23;20034;-72
2022/11/25 00:36:42;;;;;;;4.00;3.75;;;;;;;5.92;100.00;100878.91;6178501;23;20033;-73
2022/11/25 00:39:18;;;;;;;4.60;4.20;;;;;;;5.63;100.00;100825.09;6146891;23;20001;-72
2022/11/25 00:44:40;;;;;;;4.05;3.60;;;;;;;5.89;100.00;100878.16;6153893;23;20037;-72
2022/11/25 00:47:08;;;;;;;4.00;3.80;;;;;;;5.88;100.00;100872.09;6181076;23;20020;-72
2022/11/25 00:49:35;;;;;;;4.00;3.80;;;;;;;5.78;100.00;100857.66;6154365;23;20083;-74
2022/11/25 00:52:02;;;;;;;10.50;4.10;;;;;;;4.28;100.00;100589.72;6161529;23;20012;-72
2022/11/25 00:54:29;;;;;;;3.70;3.58;;;;;;;4.71;100.00;100664.75;6151967;23;20867;-72
2022/11/25 00:56:56;;;;;;;4.28;4.03;;;;;;;5.54;100.00;100800.19;6181532;23;20009;-72
2022/11/25 00:59:23;;;;;;;3.92;3.72;;;;;;;5.82;100.00;100835.81;6146668;23;20376;-72
2022/11/25 01:01:49;;;;;;;4.25;4.03;;;;;;;5.68;100.00;100814.56;6183153;23;20024;-72
2022/11/25 01:04:17;;;;;;;3.80;3.60;;;;;;;5.50;100.00;100788.16;6155287;23;20033;-72
2022/11/25 01:06:43;;;;;;;3.60;3.50;;;;;;;5.46;100.00;100781.34;6189589;23;20091;-72
2022/11/25 01:09:11;;;;;;;4.10;3.90;;;;;;;5.96;100.00;100867.53;6154890;23;20031;-73
2022/11/25 01:11:38;;;;;;;3.60;3.50;;;;;;;5.98;100.00;100863.13;6156509;23;20027;-72
2022/11/25 01:14:05;;;;;;;3.72;3.53;;;;;;;5.84;100.00;100834.03;6179524;23;20274;-72
2022/11/25 01:16:32;;;;;;;3.80;3.65;;;;;;;5.91;100.00;100845.09;6130909;23;20024;-74
2022/11/25 01:18:59;;;;;;;4.00;3.80;;;;;;;6.00;100.00;100860.50;6133882;23;20047;-72
2022/11/25 01:21:31;;;;;;;4.38;4.13;;;;;;;5.72;100.00;100801.38;6156387;23;20021;-72
2022/11/25 01:23:59;;;;;;;4.10;3.90;;;;;;;5.86;100.00;100824.41;6173076;23;20068;-72
2022/11/25 01:26:28;;;;;;;4.32;4.13;;;;;;;5.93;100.00;100827.66;6128148;23;20029;-72
2022/11/25 01:28:57;;;;;;;4.38;4.15;;;;;;;5.45;100.00;100752.75;6151922;23;20027;-72
2022/11/25 01:31:27;;;;;;;4.45;4.20;;;;;;;6.09;100.00;100836.75;6148145;23;20094;-73
2022/11/25 01:34:05;;;;;;;4.57;4.28;;;;;;;5.60;100.00;100753.16;6180424;23;20423;-72
2022/11/25 01:36:33;;;;;;;4.13;3.92;;;;;;;6.33;100.00;100861.16;6147572;23;20014;-72
2022/11/25 01:39:00;;;;;;;4.10;3.90;;;;;;;5.86;100.00;100790.56;6177838;23;20020;-74
2022/11/25 01:41:31;;;;;;;8.07;4.10;;;;;;;5.93;100.00;100792.06;6156138;23;20092;-72
2022/11/25 01:44:14;;;;;;;4.55;4.25;;;;;;;5.67;100.00;100739.94;6179759;23;20109;-73
2022/11/25 01:46:58;;;;;;;4.03;3.83;;;;;;;6.46;100.00;100847.75;6144263;23;20027;-70
2022/11/25 01:49:41;;;;;;;3.90;3.70;;;;;;;5.77;100.00;100725.72;6177796;23;20024;-72
2022/11/25 01:52:10;;;;;;;4.60;4.22;;;;;;;6.57;100.00;100851.72;6160753;23;20008;-72
2022/11/25 01:54:59;;;;;;;4.30;4.00;;;;;;;5.37;100.00;100654.97;6181660;23;20192;-72
2022/11/25 01:57:33;;;;;;;4.10;3.90;;;;;;;6.53;100.00;100838.81;6146033;23;20009;-72
2022/11/25 02:00:04;;;;;;;3.65;3.53;;;;;;;6.59;100.00;100852.53;6154549;23;20035;-72
2022/11/25 02:02:31;;;;;;;4.38;3.80;;;;;;;6.10;100.00;100775.09;6181986;23;20420;-72
2022/11/25 02:04:59;;;;;;;4.00;3.80;;;;;;;6.11;100.00;100776.78;6148076;23;20024;-73
2022/11/25 02:07:32;;;;;;;4.05;3.83;;;;;;;6.71;100.00;100853.84;6178183;23;20020;-72
2022/11/25 02:10:00;;;;;;;5.00;4.70;;;;;;;6.62;100.00;100830.69;6148356;23;20037;-72
2022/11/25 02:12:28;;;;;;;6.90;4.63;;;;;;;6.25;100.00;100752.88;6158865;23;20100;-72
2022/11/25 02:14:55;;;;;;;4.40;4.20;;;;;;;6.82;100.00;100842.22;6148478;23;20013;-73
2022/11/25 02:17:22;;;;;;;4.25;4.05;;;;;;;6.63;100.00;100802.88;6164501;23;20013;-72
2022/11/25 02:20:03;;;;;;;4.97;4.32;;;;;;;6.84;100.00;100829.97;6186932;23;20071;-72
2022/11/25 02:22:40;;;;;;;4.40;4.20;;;;;;;6.85;100.00;100829.91;6146091;23;20467;-72
2022/11/25 02:25:29;;;;;;;4.45;4.15;;;;;;;6.86;100.00;100821.19;6148516;23;20040;-72
2022/11/25 02:28:22;;;;;;;6.40;4.43;;;;;;;6.63;100.00;100782.84;6149201;23;20467;-72
2022/11/25 02:30:50;;;;;;;4.10;3.90;;;;;;;6.90;100.00;100830.59;6146425;23;20608;-72
2022/11/25 02:33:17;;;;;;;4.35;4.15;;;;;;;6.80;100.00;100805.75;6180799;23;20017;-72
2022/11/25 02:35:58;;;;;;;4.93;4.63;;;;;;;6.86;100.00;100818.56;6153595;23;20028;-72
2022/11/25 02:38:36;;;;;;;4.38;3.97;;;;;;;6.78;100.00;100812.78;6173136;23;20254;-72
2022/11/25 02:41:13;;;;;;;4.63;4.32;;;;;;;6.60;100.00;100769.94;6152280;23;20061;-72
2022/11/25 02:43:40;;;;;;;4.25;4.05;;;;;;;6.93;100.00;100827.88;6175468;23;20382;-72
2022/11/25 02:46:13;;;;;;;5.45;4.72;;;;;;;6.83;100.00;100802.19;6150375;23;20034;-72
2022/11/25 02:48:47;;;;;;;4.05;3.85;;;;;;;6.98;100.00;100810.31;6178444;23;20036;-72
2022/11/25 02:51:33;;;;;;;4.90;4.50;;;;;;;6.88;100.00;100801.13;6150563;23;20017;-72
2022/11/25 02:54:00;;;;;;;4.38;4.07;;;;;;;7.07;100.00;100824.78;6182017;23;20016;-72
2022/11/25 02:56:30;;;;;;;4.80;4.47;;;;;;;6.97;100.00;100805.16;6146813;23;20419;-74
2022/11/25 02:58:57;;;;;;;4.50;4.30;;;;;;;6.93;100.00;100791.34;6146676;23;20032;-74
2022/11/25 03:01:24;;;;;;;4.47;4.28;;;;;;;7.07;100.00;100830.00;6177550;23;20023;-73
2022/11/25 03:03:51;;;;;;;4.10;3.90;;;;;;;6.57;100.00;100742.22;6147647;23;20029;-72
2022/11/25 03:06:17;;;;;;;4.50;4.20;;;;;;;6.88;100.00;100797.66;6174787;23;20301;-72
2022/11/25 03:08:43;;;;;;;4.90;4.50;;;;;;;6.55;100.00;100758.78;6148860;23;20048;-72
2022/11/25 03:11:10;;;;;;;4.70;4.40;;;;;;;7.03;100.00;100849.28;6175445;23;20009;-72
2022/11/25 03:13:36;;;;;;;4.25;4.05;;;;;;;6.65;100.00;100791.47;6125496;23;20031;-72
2022/11/25 03:16:03;;;;;;;4.35;4.15;;;;;;;6.49;100.00;100764.22;6148955;23;20020;-72
2022/11/25 03:18:29;;;;;;;4.63;4.32;;;;;;;6.66;100.00;100801.00;6181799;23;20138;-74
2022/11/25 03:20:56;;;;;;;4.88;4.45;;;;;;;6.95;100.00;100838.25;6145300;23;20020;-72
2022/11/25 03:23:23;;;;;;;4.53;4.32;;;;;;;7.08;100.00;100850.00;6184072;23;20373;-72
2022/11/25 03:25:49;;;;;;;4.70;4.40;;;;;;;6.85;100.00;100819.47;6147759;23;20454;-72
2022/11/25 03:28:16;;;;;;;5.90;4.15;;;;;;;7.07;100.00;100844.81;6176060;23;20485;-72
2022/11/25 03:30:42;;;;;;;5.18;4.88;;;;;;;6.93;100.00;100825.28;6147960;23;20038;-71
2022/11/25 03:33:09;;;;;;;3.90;3.70;;;;;;;7.09;100.00;100846.47;6177959;23;20091;-72
2022/11/25 03:35:35;;;;;;;4.82;4.38;;;;;;;6.38;100.00;100720.28;6150153;23;20518;-72
2022/11/25 03:38:02;;;;;;;10.20;5.47;;;;;;;7.15;100.00;100856.69;6181339;23;20103;-72
2022/11/25 03:40:28;;;;;;;5.32;4.90;;;;;;;7.15;100.00;100859.28;6146688;23;20385;-73
2022/11/25 03:42:54;;;;;;;5.00;4.63;;;;;;;6.79;100.00;100804.03;6187802;23;20020;-72
2022/11/25 03:45:21;;;;;;;6.38;4.88;;;;;;;6.74;100.00;100800.75;6123142;23;20453;-72
2022/11/25 03:47:47;;;;;;;4.75;4.38;;;;;;;6.94;100.00;100849.63;6179680;23;20012;-72
2022/11/25 03:50:14;;;;;;;4.00;3.80;;;;;;;7.17;100.00;100869.69;6160047;23;20035;-72
2022/11/25 03:52:41;;;;;;;4.80;4.25;;;;;;;7.06;100.00;100858.78;6164927;23;20036;-72
2022/11/25 03:55:08;;;;;;;4.18;3.88;;;;;;;7.21;100.00;100870.44;6149699;23;20361;-71
2022/11/25 03:57:34;;;;;;;4.50;4.20;;;;;;;6.62;100.00;100783.75;6181476;23;20204;-72
2022/11/25 04:00:01;;;;;;;4.43;4.22;;;;;;;7.05;100.00;100859.69;6127093;23;20017;-72
2022/11/25 04:02:28;;;;;;;9.10;4.70;;;;;;;7.24;100.00;100894.69;6181794;23;20040;-72
2022/11/25 04:04:54;;;;;;;4.65;4.45;;;;;;;7.26;100.00;100892.03;6151636;23;20020;-72
2022/11/25 04:07:20;;;;;;;4.13;3.92;;;;;;;7.31;100.00;100883.09;6161328;23;20024;-72
2022/11/25 04:09:47;;;;;;;4.35;4.15;;;;;;;6.61;100.00;100789.88;6156729;23;20009;-72
2022/11/25 04:14:58;;;;;;;4.50;4.30;;;;;;;7.34;100.00;100895.22;6148090;23;20031;-72
2022/11/25 04:17:25;;;;;;;4.28;4.07;;;;;;;7.37;100.00;100890.69;6183035;23;20013;-72
2022/11/25 04:19:51;;;;;;;4.70;4.35;;;;;;;6.93;100.00;100814.00;6156530;23;20072;-72
2022/11/25 04:22:17;;;;;;;13.93;5.68;;;;;;;7.36;100.00;100889.00;6165685;23;20035;-73
2022/11/25 04:24:44;;;;;;;8.93;4.05;;;;;;;7.38;100.00;100902.03;6151768;23;20069;-72
2022/11/25 04:27:10;;;;;;;5.18;4.88;;;;;;;7.14;100.00;100857.59;6179558;23;20009;-72
2022/11/25 04:29:37;;;;;;;5.75;4.78;;;;;;;7.03;100.00;100853.66;6152974;23;20089;-72
2022/11/25 04:32:03;;;;;;;4.75;4.47;;;;;;;7.11;100.00;100859.47;6151171;23;20051;-72
2022/11/25 04:34:30;;;;;;;5.00;4.60;;;;;;;6.66;100.00;100787.13;6155581;23;20027;-73
2022/11/25 04:36:56;;;;;;;4.40;4.20;;;;;;;7.09;100.00;100862.13;6148604;23;20139;-72
2022/11/25 04:39:22;;;;;;;6.72;4.53;;;;;;;6.81;100.00;100817.03;6179610;23;20016;-72
2022/11/25 04:41:49;;;;;;;8.02;4.00;;;;;;;7.37;100.00;100911.59;6159114;23;20093;-73
2022/11/25 04:44:15;;;;;;;5.65;4.72;;;;;;;6.61;100.00;100802.91;6180120;23;20024;-72
2022/11/25 04:46:42;;;;;;;4.28;3.97;;;;;;;6.81;100.00;100837.91;6146625;23;20033;-73
2022/11/25 04:49:09;;;;;;;9.90;4.47;;;;;;;6.88;100.00;100848.06;6171869;23;20477;-73
2022/11/25 04:51:36;;;;;;;4.68;4.38;;;;;;;7.26;100.00;100928.56;6150116;23;20025;-72
2022/11/25 04:54:02;;;;;;;4.40;4.10;;;;;;;7.14;100.00;100919.41;6176440;23;21516;-72
2022/11/25 04:56:29;;;;;;;4.95;4.53;;;;;;;7.12;100.00;100910.75;6147650;23;20021;-72
2022/11/25 05:01:40;;;;;;;4.75;4.45;;;;;;;6.06;100.00;100743.06;6184764;23;20422;-73
2022/11/25 05:04:07;;;;;;;4.45;4.25;;;;;;;7.08;100.00;100912.63;6157459;23;20040;-73
2022/11/25 05:06:33;;;;;;;4.43;4.18;;;;;;;6.34;100.00;100792.50;6191993;23;20028;-73
2022/11/25 05:09:00;;;;;;;4.43;4.13;;;;;;;7.21;100.00;100933.06;6152307;23;20025;-73
2022/11/25 05:11:26;;;;;;;4.00;3.80;;;;;;;6.78;100.00;100863.19;6181799;23;20185;-73
2022/11/25 05:13:52;;;;;;;4.50;4.28;;;;;;;7.04;100.00;100916.25;6151946;23;20034;-73
2022/11/25 05:16:19;;;;;;;10.43;4.60;;;;;;;6.19;100.00;100777.38;6182466;23;20024;-73
2022/11/25 05:18:45;;;;;;;8.10;4.95;;;;;;;6.85;100.00;100886.44;6139808;23;20028;-72
2022/11/25 05:21:12;;;;;;;6.88;4.38;;;;;;;6.58;100.00;100842.16;6182817;23;20655;-73
2022/11/25 05:23:38;;;;;;;4.60;4.40;;;;;;;6.99;100.00;100915.53;6152076;23;20424;-73
2022/11/25 05:26:04;;;;;;;4.90;4.28;;;;;;;6.95;100.00;100912.16;6181745;23;20086;-73
2022/11/25 05:28:31;;;;;;;4.28;4.07;;;;;;;7.19;100.00;100954.84;6154575;23;20084;-73
2022/11/25 05:30:57;;;;;;;5.43;4.72;;;;;;;7.19;100.00;100956.59;6179369;23;20029;-73
2022/11/25 05:33:24;;;;;;;9.40;6.28;;;;;;;7.09;100.00;100943.00;6147770;23;20080;-73
2022/11/25 05:35:58;;;;;;;4.38;4.18;;;;;;;7.18;100.00;100966.22;6179887;23;20077;-73
2022/11/25 05:38:25;;;;;;;6.93;4.10;;;;;;;7.04;100.00;100942.34;6146489;23;20033;-73
2022/11/25 05:40:53;;;;;;;4.63;4.32;;;;;;;6.87;100.00;100900.28;6181145;23;20027;-73
2022/11/25 05:43:19;;;;;;;4.35;4.15;;;;;;;6.92;100.00;100912.28;6165874;23;20151;-73
2022/11/25 05:45:46;;;;;;;4.38;4.18;;;;;;;7.11;100.00;100969.91;6183789;23;20399;-72
2022/11/25 05:48:12;;;;;;;4.95;4.55;;;;;;;7.21;100.00;100967.84;6149049;23;20017;-74
2022/11/25 05:50:39;;;;;;;7.68;4.85;;;;;;;7.20;100.00;100979.22;6150883;23;20025;-73
2022/11/25 05:53:05;;;;;;;4.25;4.05;;;;;;;7.16;100.00;100965.41;6178120;23;20029;-73
2022/11/25 05:55:31;;;;;;;5.43;4.97;;;;;;;7.19;100.00;100967.06;6153868;23;20032;-73
2022/11/25 05:57:58;;;;;;;12.73;5.15;;;;;;;7.19;100.00;100969.66;6181087;23;20603;-73
2022/11/25 06:00:26;;;;;;;4.88;4.57;;;;;;;6.75;100.00;100904.16;6125143;23;20306;-73
2022/11/25 06:02:52;;;;;;;4.85;4.60;;;;;;;6.67;100.00;100883.53;6179828;23;20411;-73
2022/11/25 06:05:19;;;;;;;5.78;5.38;;;;;;;7.17;100.00;100976.69;6148697;23;20442;-73
2022/11/25 06:07:45;;;;;;;5.15;4.85;;;;;;;7.15;100.00;100983.72;6177599;23;20364;-72
2022/11/25 06:10:12;;;;;;;4.32;4.03;;;;;;;6.69;100.00;100917.41;6152418;23;20017;-73
2022/11/25 06:12:38;;;;;;;4.97;4.45;;;;;;;6.09;100.00;100823.72;6150572;23;20091;-73
2022/11/25 06:15:05;;;;;;;7.43;4.00;;;;;;;6.75;100.00;100927.63;6178220;23;20033;-73
2022/11/25 06:17:31;;;;;;;4.60;4.32;;;;;;;6.95;100.00;100958.28;6149021;23;20040;-72
2022/11/25 06:19:58;;;;;;;4.32;4.13;;;;;;;6.39;100.00;100889.69;6182288;23;20024;-72
2022/11/25 06:22:24;;;;;;;4.70;4.40;;;;;;;7.08;100.00;100988.31;6149873;23;20029;-73
2022/11/25 06:24:51;;;;;;;4.40;4.20;;;;;;;6.47;100.00;100891.16;6147280;23;20036;-73
2022/11/25 06:27:28;;;;;;;3.92;3.72;;;;;;;6.44;100.00;100894.72;6170011;23;20017;-73
2022/11/25 06:30:15;;;;;;;4.43;4.18;;;;;;;7.09;100.00;101010.88;6143354;23;20031;-73
2022/11/25 06:32:41;;;;;;;4.97;4.68;;;;;;;7.08;100.00;101009.19;6181626;23;20032;-73
2022/11/25 06:35:08;;;;;;;5.35;5.00;;;;;;;6.66;100.00;100943.59;6148666;23;20028;-73
2022/11/25 06:37:34;;;;;;;4.05;3.85;;;;;;;6.69;100.00;100956.53;6177682;23;20028;-73
2022/11/25 06:40:01;;;;;;;9.38;4.40;;;;;;;6.89;100.00;101002.84;6149868;23;20032;-72
2022/11/25 06:42:27;;;;;;;5.03;4.72;;;;;;;6.62;100.00;100945.44;6184295;23;20442;-73
2022/11/25 06:44:54;;;;;;;4.43;4.22;;;;;;;7.05;100.00;101019.69;6151116;23;20017;-73
2022/11/25 06:47:21;;;;;;;5.20;4.90;;;;;;;6.82;100.00;100989.16;6173924;23;20016;-73
2022/11/25 06:49:47;;;;;;;4.85;4.55;;;;;;;6.99;100.00;101018.13;6154661;23;20486;-72
2022/11/25 06:52:14;;;;;;;4.30;4.10;;;;;;;6.26;100.00;100930.03;6176667;23;20008;-72
2022/11/25 06:54:40;;;;;;;4.30;4.10;;;;;;;6.78;100.00;100996.22;6151808;23;20016;-72
2022/11/25 06:57:08;;;;;;;5.40;4.80;;;;;;;6.59;100.00;100984.63;6187037;23;20016;-72
2022/11/25 06:59:35;;;;;;;4.13;3.92;;;;;;;6.34;100.00;100950.66;6159389;23;20061;-72
2022/11/25 07:02:02;;;;;;;4.43;4.18;;;;;;;6.77;100.00;101031.00;6176698;23;20020;-72
2022/11/25 07:04:29;;;;;;;4.72;4.50;;;;;;;6.72;100.00;101038.13;6143173;23;20101;-73
2022/11/25 07:06:55;;;;;;;4.88;4.63;;;;;;;6.61;100.00;101039.38;6173932;23;20017;-72
2022/11/25 07:09:23;;;;;;;5.03;4.63;;;;;;;6.50;100.00;101042.31;6150265;23;20409;-70
2022/11/25 07:11:49;;;;;;;4.80;4.50;;;;;;;5.46;100.00;100892.41;6182421;23;20371;-69
2022/11/25 07:14:16;;;;;;;4.70;4.40;;;;;;;5.26;100.00;100860.00;6161490;23;20197;-70
2022/11/25 07:16:44;;;;;;;4.32;4.13;;;;;;;6.14;100.00;101019.88;6147147;23;20020;-69
2022/11/25 07:19:13;;;;;;;4.57;4.30;;;;;;;5.94;100.00;101023.00;6178455;23;20049;-69
2022/11/25 07:21:40;;;;;;;5.15;4.75;;;;;;;6.12;100.00;101036.44;6154867;23;20033;-70
2022/11/25 07:24:07;;;;;;;3.92;3.72;;;;;;;6.02;100.00;101028.03;6181655;23;20020;-69
2022/11/25 07:26:37;;;;;;;5.32;4.97;;;;;;;5.50;100.00;100951.31;6149810;23;20459;-69
2022/11/25 07:29:06;;;;;;;4.32;4.13;;;;;;;6.11;100.00;101063.38;6153139;23;20013;-69
2022/11/25 07:31:53;;;;;;;4.45;4.25;;;;;;;5.81;100.00;101021.63;6147701;23;20449;-69
2022/11/25 07:34:20;;;;;;;4.15;3.97;;;;;;;5.73;100.00;101026.19;6142338;23;20462;-69
2022/11/25 07:36:48;;;;;;;4.70;4.38;;;;;;;5.65;100.00;101025.53;6177279;23;20024;-69
2022/11/25 07:39:20;;;;;;;5.00;4.57;;;;;;;5.80;100.00;101057.22;6132546;23;20040;-69
2022/11/25 07:41:56;;;;;;;5.72;5.22;;;;;;;5.54;100.00;101013.66;6163735;23;20051;-69
2022/11/25 07:44:22;;;;;;;4.38;4.18;;;;;;;5.57;100.00;101026.59;6155826;23;20045;-70
2022/11/25 07:46:50;;;;;;;4.90;4.60;;;;;;;5.96;100.00;101088.13;6147191;23;20521;-69
2022/11/25 07:49:19;;;;;;;4.40;4.20;;;;;;;5.88;100.00;101075.25;6167427;23;20024;-69
2022/11/25 07:51:58;;;;;;;4.63;4.40;;;;;;;5.94;100.00;101090.72;6154797;23;20237;-68
2022/11/25 07:54:25;;;;;;;4.00;3.70;;;;;;;5.93;100.00;101096.84;6175483;23;20380;-68
2022/11/25 07:56:52;;;;;;;4.85;4.55;;;;;;;5.93;100.00;101102.06;6148697;23;20053;-68
2022/11/25 07:59:20;;;;;;;4.90;4.60;;;;;;;5.80;100.00;101077.22;6186121;23;20040;-68
2022/11/25 08:01:49;;;;;;;4.30;4.10;;;;;;;5.39;100.00;101016.66;6147018;23;20031;-68
2022/11/25 08:04:15;;;;;;;5.93;4.43;;;;;;;6.05;100.00;101120.88;6178965;23;20321;-68
2022/11/25 08:06:47;;;;;;;4.88;4.30;;;;;;;6.09;100.00;101117.28;6142891;23;20092;-68
2022/11/25 08:09:18;;;;;;;4.20;4.00;;;;;;;5.69;100.00;101046.25;6146854;23;20074;-69
2022/11/25 08:11:45;;;;;;;4.97;4.63;;;;;;;6.13;100.00;101113.72;6146784;23;20617;-68
2022/11/25 08:14:11;;;;;;;4.50;4.20;;;;;;;6.13;100.00;101114.59;6183093;23;20004;-68
2022/11/25 08:16:38;;;;;;;4.00;3.80;;;;;;;5.94;100.00;101088.13;6145343;23;20049;-68
2022/11/25 08:19:06;;;;;;;4.88;4.63;;;;;;;5.73;100.00;101063.50;6184900;23;20462;-69
2022/11/25 08:21:33;;;;;;;5.38;4.97;;;;;;;6.17;100.00;101128.38;6153494;23;20013;-68
2022/11/25 08:24:01;;;;;;;4.70;4.40;;;;;;;6.22;100.00;101136.94;6149254;23;20013;-68
2022/11/25 08:26:31;;;;;;;6.93;4.07;;;;;;;5.68;100.00;101039.31;6133533;23;20393;-68
2022/11/25 08:28:58;;;;;;;4.90;4.60;;;;;;;6.38;100.00;101143.41;6148597;23;20020;-68
2022/11/25 08:31:28;;;;;;;4.40;4.20;;;;;;;6.31;100.00;101125.38;6178895;23;20073;-69
2022/11/25 08:33:56;;;;;;;5.05;4.78;;;;;;;6.50;100.00;101157.88;6148161;23;20021;-69
2022/11/25 08:36:23;;;;;;;11.30;6.47;;;;;;;6.49;100.00;101160.50;6173119;23;20206;-68
2022/11/25 08:38:54;;;;;;;4.43;4.15;;;;;;;6.45;100.00;101158.88;6143772;23;20024;-68
2022/11/25 08:41:23;;;;;;;4.28;4.07;;;;;;;6.43;100.00;101158.09;6180252;23;20447;-68
2022/11/25 08:43:50;;;;;;;6.13;5.63;;;;;;;5.20;100.00;100946.00;6150977;23;20052;-68
2022/11/25 08:46:20;;;;;;;4.63;4.22;;;;;;;6.55;100.00;101155.97;6177176;23;20038;-68
2022/11/25 08:48:46;;;;;;;6.35;5.78;;;;;;;6.52;100.00;101140.44;6147229;23;20040;-68
2022/11/25 08:51:19;;;;;;;6.60;4.07;;;;;;;6.72;100.00;101165.94;6179988;23;20227;-68
2022/11/25 08:53:46;;;;;;;6.97;6.63;;;;;;;6.58;100.00;101135.03;6147337;23;20542;-76
2022/11/25 08:56:13;;;;;;;5.68;5.18;;;;;;;6.59;100.00;101131.56;6153451;23;20092;-71
2022/11/25 08:58:40;;;;;;;4.88;4.47;;;;;;;5.76;100.00;100967.06;6145738;23;20425;-70
2022/11/25 09:01:07;;;;;;;5.03;4.72;;;;;;;6.67;100.00;101109.59;6177741;23;20053;-70
2022/11/25 09:03:35;;;;;;;5.25;4.95;;;;;;;7.09;100.00;101153.56;6146812;23;20035;-73
2022/11/25 09:06:03;;;;;;;11.10;5.32;;;;;;;6.81;100.00;101094.38;6144324;23;20616;-76
2022/11/25 09:08:30;;;;;;;4.15;3.95;;;;;;;7.19;100.00;101140.19;6126309;23;20021;-72
2022/11/25 09:10:57;;;;;;;4.60;4.40;;;;;;;7.13;100.00;101116.88;6142924;23;20026;-75
2022/11/25 09:13:24;;;;;;;4.00;3.80;;;;;;;7.62;100.00;101184.13;6162682;23;20085;-69
2022/11/25 09:15:51;;;;;;;4.95;4.55;;;;;;;7.72;100.00;101189.00;6137420;23;20035;-67
2022/11/25 09:18:19;;;;;;;7.57;4.70;;;;;;;7.36;100.00;101112.72;6161972;23;20020;-71
2022/11/25 09:20:46;;;;;;;4.10;3.90;;;;;;;7.79;100.00;101197.50;6140456;23;20075;-68
2022/11/25 09:23:12;;;;;;;4.63;4.30;;;;;;;8.04;100.00;101191.44;6156005;23;20556;-68
2022/11/25 09:25:39;;;;;;;4.32;4.13;;;;;;;7.74;100.00;101124.50;6156253;23;20036;-68
2022/11/25 09:28:05;;;;;;;4.60;4.35;;;;;;;8.23;100.00;101187.31;6180483;23;20069;-68
2022/11/25 09:30:32;;;;;;;4.50;4.30;;;;;;;8.48;100.00;101197.81;6148236;23;20454;-68
2022/11/25 09:32:58;;;;;;;5.28;4.80;;;;;;;8.64;100.00;101200.72;6178851;23;20107;-68
2022/11/25 09:35:25;;;;;;;5.40;5.07;;;;;;;8.78;100.00;101198.47;6148347;23;20828;-70
2022/11/25 09:37:52;;;;;;;6.90;5.38;;;;;;;8.94;100.00;101203.13;6177764;23;20020;-70
2022/11/25 09:40:28;;;;;;;5.00;4.60;;;;;;;9.06;100.00;101207.03;6152131;23;20017;-69
2022/11/25 09:49:43;;;;;;;4.60;4.40;;;;;;;9.30;100.00;101179.94;6062924;23;20262;-69
2022/11/25 09:52:28;;;;;;;5.07;4.80;;;;;;;9.31;100.00;101176.38;6065151;23;20015;-68
2022/11/25 09:55:04;;;;;;;14.75;5.28;;;;;;;9.47;100.00;101174.00;6122272;23;20039;-69
2022/11/25 09:58:05;;;;;;;7.15;5.20;;;;;;;9.52;100.00;101173.81;6149305;23;20019;-69
2022/11/25 10:00:41;;;;;;;4.63;4.22;;;;;;;9.29;100.00;101127.59;6156849;23;20021;-69
2022/11/25 10:03:32;;;;;;;5.40;5.00;;;;;;;9.68;100.00;101174.06;6148884;23;20021;-68
2022/11/25 10:06:26;;;;;;;6.25;5.60;;;;;;;9.79;100.00;101164.84;6152506;23;20031;-69
2022/11/25 10:08:57;;;;;;;10.32;5.28;;;;;;;9.88;100.00;101161.00;6151321;23;20045;-69
2022/11/25 10:11:23;;;;;;;15.05;5.45;;;;;;;10.06;100.00;101169.00;6150165;23;20086;-69
2022/11/25 10:14:17;;;;;;;5.85;5.45;;;;;;;10.11;100.00;101167.03;6185066;23;20020;-68
2022/11/25 10:16:51;;;;;;;13.32;6.53;;;;;;;10.15;100.00;101171.22;6139757;23;20631;-69
2022/11/25 10:19:50;;;;;;;5.22;4.93;;;;;;;10.26;100.00;101174.22;6181334;23;20031;-68
2022/11/25 10:22:26;;;;;;;6.28;5.88;;;;;;;10.49;100.00;101181.13;6142245;23;20024;-69
2022/11/25 10:24:57;;;;;;;5.10;4.80;;;;;;;10.49;100.00;101181.13;6175433;23;20060;-69
2022/11/25 10:27:40;;;;;;;6.13;5.68;;;;;;;9.82;100.00;101116.66;6157190;23;20548;-69
2022/11/25 10:30:16;;;;;;;6.10;5.57;;;;;;;9.79;100.00;101116.81;6176821;23;20012;-69
2022/11/25 10:32:49;;;;;;;6.55;4.97;;;;;;;9.77;100.00;101122.13;6154308;23;20059;-69
2022/11/25 10:35:27;;;;;;;5.55;5.03;;;;;;;10.32;100.00;101218.63;6175572;23;20031;-69
2022/11/25 10:37:57;;;;;;;5.43;4.93;;;;;;;10.32;100.00;101223.88;6152100;23;20021;-69
2022/11/25 10:40:23;;;;;;;5.00;4.70;;;;;;;10.36;100.00;101230.69;6186913;23;20077;-69
2022/11/25 10:42:50;;;;;;;5.43;4.95;;;;;;;10.35;100.00;101231.59;6165768;23;20035;-69
2022/11/25 10:45:21;;;;;;;7.43;5.38;;;;;;;10.08;100.00;101154.91;6181743;23;20016;-69
2022/11/25 10:48:05;;;;;;;5.20;4.72;;;;;;;10.65;100.00;101225.09;6167085;23;20052;-68
2022/11/25 10:50:37;;;;;;;5.85;5.35;;;;;;;10.52;100.00;101238.75;6195738;23;20022;-68
2022/11/25 10:53:30;;;;;;;5.47;5.10;;;;;;;10.44;100.00;101243.44;6153215;23;20035;-68
2022/11/25 10:56:08;;;;;;;8.10;6.07;;;;;;;10.49;100.00;101240.66;6174527;23;20033;-69
2022/11/25 10:58:37;;;;;;;7.95;6.88;;;;;;;10.51;100.00;101247.53;6156446;23;20361;-69
2022/11/25 11:01:17;;;;;;;6.15;5.35;;;;;;;10.53;100.00;101253.56;6183662;23;20541;-69
2022/11/25 11:03:49;;;;;;;4.78;4.47;;;;;;;10.49;100.00;101253.78;6153861;23;20059;-69
2022/11/25 11:06:37;;;;;;;4.78;4.53;;;;;;;10.38;100.00;101244.59;6184281;23;20012;-69
2022/11/25 11:09:03;;;;;;;10.80;5.55;;;;;;;10.32;100.00;101262.34;6148305;23;20028;-69
2022/11/25 11:11:30;;;;;;;10.35;5.22;;;;;;;10.19;100.00;101261.97;6158589;23;20012;-69
2022/11/25 11:14:19;;;;;;;8.82;5.32;;;;;;;10.01;100.00;101253.09;6153421;23;20013;-69
2022/11/25 11:16:54;;;;;;;9.57;5.00;;;;;;;10.15;100.00;101273.53;6151368;23;20041;-69
2022/11/25 11:19:24;;;;;;;12.32;5.00;;;;;;;10.29;100.00;101281.66;6153230;23;20020;-68
2022/11/25 11:21:51;;;;;;;6.38;4.65;;;;;;;9.83;100.00;101206.66;6191169;23;20465;-70
2022/11/25 11:24:28;;;;;;;5.38;5.05;;;;;;;9.31;100.00;101138.88;6128697;23;20025;-68
2022/11/25 11:27:08;;;;;;;5.13;4.90;;;;;;;10.21;100.00;101280.28;6151726;23;20519;-69
2022/11/25 11:29:35;;;;;;;8.50;4.80;;;;;;;10.08;100.00;101257.19;6154528;23;20027;-69
2022/11/25 11:32:04;;;;;;;9.68;5.28;;;;;;;10.06;100.00;101218.81;6152260;23;20025;-69
2022/11/25 11:34:58;;;;;;;4.88;4.68;;;;;;;10.91;100.00;101284.31;6154186;23;20024;-69
2022/11/25 11:37:44;;;;;;;6.18;4.32;;;;;;;11.02;100.00;101281.22;6151149;23;20029;-69
2022/11/25 11:40:45;;;;;;;4.88;4.65;;;;;;;11.26;100.00;101284.50;6154741;23;20020;-69
2022/11/25 11:43:27;;;;;;;5.93;4.50;;;;;;;11.50;100.00;101283.38;6147252;23;20033;-68
2022/11/25 11:46:05;;;;;;;7.53;4.93;;;;;;;11.29;100.00;101294.88;6156496;23;20525;-68
2022/11/25 11:48:45;;;;;;;5.00;4.70;;;;;;;11.50;100.00;101293.88;6148499;23;20028;-67
2022/11/25 11:51:27;;;;;;;8.63;5.70;;;;;;;11.92;100.00;101294.59;6141607;23;20274;-67